sensor_id;sensor_type;location;lat;lon;timestamp;pressure;altitude;pressure_sealevel;temperature;humidity
42725;BME280;28369;44.046;23.014;2023-04-08T00:02:23;101413.00;;;14.10;46.45
42725;BME280;28369;44.046;23.014;2023-04-08T00:04:49;101433.28;;;14.10;46.65
42725;BME280;28369;44.046;23.014;2023-04-08T00:07:14;101422.88;;;13.87;46.93
42725;BME280;28369;44.046;23.014;2023-04-08T00:09:40;101328.59;;;13.36;46.74
42725;BME280;28369;44.046;23.014;2023-04-08T00:12:05;101441.00;;;13.92;47.13
42725;BME280;28369;44.046;23.014;2023-04-08T00:14:31;101445.13;;;14.15;47.00
42725;BME280;28369;44.046;23.014;2023-04-08T00:16:56;101419.97;;;13.90;47.30
42725;BME280;28369;44.046;23.014;2023-04-08T00:19:22;101245.16;;;12.81;47.47
42725;BME280;28369;44.046;23.014;2023-04-08T00:21:47;101460.81;;;14.07;48.26
42725;BME280;28369;44.046;23.014;2023-04-08T00:24:13;101474.19;;;13.85;48.49
42725;BME280;28369;44.046;23.014;2023-04-08T00:26:38;101461.69;;;13.87;48.33
42725;BME280;28369;44.046;23.014;2023-04-08T00:29:04;101202.81;;;12.40;48.25
42725;BME280;28369;44.046;23.014;2023-04-08T00:31:29;101414.13;;;13.44;49.01
42725;BME280;28369;44.046;23.014;2023-04-08T00:33:55;101381.34;;;13.47;48.45
42725;BME280;28369;44.046;23.014;2023-04-08T00:36:21;101198.56;;;12.49;48.33
42725;BME280;28369;44.046;23.014;2023-04-08T00:38:46;101463.75;;;13.83;48.87
42725;BME280;28369;44.046;23.014;2023-04-08T00:41:12;101457.31;;;13.76;48.99
42725;BME280;28369;44.046;23.014;2023-04-08T00:43:37;101477.69;;;13.85;48.74
42725;BME280;28369;44.046;23.014;2023-04-08T00:46:03;101456.59;;;13.53;48.87
42725;BME280;28369;44.046;23.014;2023-04-08T00:48:29;101407.06;;;13.45;48.38
42725;BME280;28369;44.046;23.014;2023-04-08T00:50:56;101467.72;;;13.98;48.28
42725;BME280;28369;44.046;23.014;2023-04-08T00:53:21;101439.94;;;13.73;48.16
42725;BME280;28369;44.046;23.014;2023-04-08T00:55:47;101107.28;;;11.95;47.57
42725;BME280;28369;44.046;23.014;2023-04-08T00:58:13;101463.09;;;14.12;47.40
42725;BME280;28369;44.046;23.014;2023-04-08T01:00:44;101261.13;;;12.79;47.08
42725;BME280;28369;44.046;23.014;2023-04-08T01:03:25;101400.72;;;13.57;47.21
42725;BME280;28369;44.046;23.014;2023-04-08T01:08:18;101500.06;;;14.02;47.43
42725;BME280;28369;44.046;23.014;2023-04-08T01:10:46;101389.53;;;13.11;47.78
42725;BME280;28369;44.046;23.014;2023-04-08T01:13:17;101469.88;;;13.62;47.75
42725;BME280;28369;44.046;23.014;2023-04-08T01:15:43;101439.31;;;13.91;47.32
42725;BME280;28369;44.046;23.014;2023-04-08T01:18:12;101097.38;;;11.75;47.03
42725;BME280;28369;44.046;23.014;2023-04-08T01:20:39;101355.22;;;13.11;47.69
42725;BME280;28369;44.046;23.014;2023-04-08T01:23:19;101415.44;;;13.50;47.53
42725;BME280;28369;44.046;23.014;2023-04-08T01:25:56;101391.09;;;13.46;47.02
42725;BME280;28369;44.046;23.014;2023-04-08T01:28:25;101488.63;;;14.02;47.38
42725;BME280;28369;44.046;23.014;2023-04-08T01:30:53;101358.72;;;13.33;46.99
42725;BME280;28369;44.046;23.014;2023-04-08T01:33:20;101429.44;;;13.93;46.47
42725;BME280;28369;44.046;23.014;2023-04-08T01:35:47;101458.91;;;13.88;46.89
42725;BME280;28369;44.046;23.014;2023-04-08T01:38:17;101300.09;;;12.76;47.15
42725;BME280;28369;44.046;23.014;2023-04-08T01:40:45;101466.72;;;13.47;47.40
42725;BME280;28369;44.046;23.014;2023-04-08T01:43:13;101437.84;;;13.56;47.21
42725;BME280;28369;44.046;23.014;2023-04-08T01:45:41;101432.06;;;13.62;46.80
42725;BME280;28369;44.046;23.014;2023-04-08T01:48:08;101225.69;;;12.40;46.64
42725;BME280;28369;44.046;23.014;2023-04-08T01:50:34;101444.16;;;13.64;46.80
42725;BME280;28369;44.046;23.014;2023-04-08T01:53:01;101484.69;;;13.96;46.69
42725;BME280;28369;44.046;23.014;2023-04-08T01:55:29;101469.09;;;13.93;46.65
42725;BME280;28369;44.046;23.014;2023-04-08T01:57:58;101391.34;;;13.43;46.54
42725;BME280;28369;44.046;23.014;2023-04-08T02:00:27;101257.84;;;12.66;46.12
42725;BME280;28369;44.046;23.014;2023-04-08T02:02:54;101474.63;;;14.11;46.02
42725;BME280;28369;44.046;23.014;2023-04-08T02:05:19;101467.53;;;13.90;46.23
42725;BME280;28369;44.046;23.014;2023-04-08T02:07:46;101470.53;;;13.76;46.69
42725;BME280;28369;44.046;23.014;2023-04-08T02:10:12;101399.78;;;13.37;46.56
42725;BME280;28369;44.046;23.014;2023-04-08T02:12:38;101484.13;;;13.92;46.47
42725;BME280;28369;44.046;23.014;2023-04-08T02:15:04;101442.94;;;13.69;46.47
42725;BME280;28369;44.046;23.014;2023-04-08T02:17:38;101430.44;;;13.71;46.46
42725;BME280;28369;44.046;23.014;2023-04-08T02:20:07;101434.31;;;13.67;46.41
42725;BME280;28369;44.046;23.014;2023-04-08T02:22:46;101213.75;;;12.24;46.77
42725;BME280;28369;44.046;23.014;2023-04-08T02:25:15;101400.38;;;13.08;47.43
42725;BME280;28369;44.046;23.014;2023-04-08T02:27:42;101508.34;;;13.97;47.68
42725;BME280;28369;44.046;23.014;2023-04-08T02:30:09;101292.78;;;12.47;47.58
42725;BME280;28369;44.046;23.014;2023-04-08T02:32:36;101524.94;;;13.99;47.69
42725;BME280;28369;44.046;23.014;2023-04-08T02:35:03;101244.09;;;12.19;48.13
42725;BME280;28369;44.046;23.014;2023-04-08T02:37:32;101481.03;;;13.45;48.15
42725;BME280;28369;44.046;23.014;2023-04-08T02:39:58;101261.59;;;12.20;47.96
42725;BME280;28369;44.046;23.014;2023-04-08T02:42:23;101468.09;;;13.42;48.15
42725;BME280;28369;44.046;23.014;2023-04-08T02:44:49;101330.84;;;12.66;48.25
42725;BME280;28369;44.046;23.014;2023-04-08T02:47:15;101385.56;;;12.96;47.92
42725;BME280;28369;44.046;23.014;2023-04-08T02:49:40;101490.84;;;13.75;47.66
42725;BME280;28369;44.046;23.014;2023-04-08T02:52:06;101487.97;;;13.46;47.71
42725;BME280;28369;44.046;23.014;2023-04-08T02:54:31;101504.38;;;13.82;47.72
42725;BME280;28369;44.046;23.014;2023-04-08T02:56:57;101469.19;;;13.60;47.20
42725;BME280;28369;44.046;23.014;2023-04-08T02:59:22;101451.44;;;13.51;47.43
42725;BME280;28369;44.046;23.014;2023-04-08T03:01:48;101381.28;;;13.16;47.16
42725;BME280;28369;44.046;23.014;2023-04-08T03:04:13;101480.06;;;13.88;46.99
42725;BME280;28369;44.046;23.014;2023-04-08T03:06:39;101428.00;;;13.37;47.04
42725;BME280;28369;44.046;23.014;2023-04-08T03:09:05;101315.34;;;12.72;47.35
42725;BME280;28369;44.046;23.014;2023-04-08T03:11:31;101372.22;;;12.98;47.27
42725;BME280;28369;44.046;23.014;2023-04-08T03:13:57;101318.00;;;12.72;47.09
42725;BME280;28369;44.046;23.014;2023-04-08T03:16:22;101437.97;;;13.54;47.17
42725;BME280;28369;44.046;23.014;2023-04-08T03:18:51;101495.91;;;13.67;46.92
42725;BME280;28369;44.046;23.014;2023-04-08T03:21:16;101538.41;;;13.96;47.22
42725;BME280;28369;44.046;23.014;2023-04-08T03:23:42;101524.47;;;13.94;47.13
42725;BME280;28369;44.046;23.014;2023-04-08T03:26:08;101313.34;;;12.65;47.44
42725;BME280;28369;44.046;23.014;2023-04-08T03:28:33;101511.50;;;13.70;47.34
42725;BME280;28369;44.046;23.014;2023-04-08T03:30:59;101534.59;;;13.68;47.60
42725;BME280;28369;44.046;23.014;2023-04-08T03:33:27;101515.56;;;13.53;47.63
42725;BME280;28369;44.046;23.014;2023-04-08T03:35:53;101515.72;;;13.73;47.69
42725;BME280;28369;44.046;23.014;2023-04-08T03:38:18;101361.00;;;12.84;47.20
42725;BME280;28369;44.046;23.014;2023-04-08T03:40:44;101493.19;;;13.57;47.21
42725;BME280;28369;44.046;23.014;2023-04-08T03:43:09;101336.00;;;12.67;47.05
42725;BME280;28369;44.046;23.014;2023-04-08T03:45:36;101491.84;;;13.63;47.18
42725;BME280;28369;44.046;23.014;2023-04-08T03:48:02;101531.91;;;13.79;47.28
42725;BME280;28369;44.046;23.014;2023-04-08T03:50:27;101492.06;;;13.39;47.60
42725;BME280;28369;44.046;23.014;2023-04-08T03:52:53;101513.88;;;13.52;47.65
42725;BME280;28369;44.046;23.014;2023-04-08T03:55:18;101283.53;;;12.20;47.67
42725;BME280;28369;44.046;23.014;2023-04-08T03:57:44;101487.91;;;13.36;47.92
42725;BME280;28369;44.046;23.014;2023-04-08T04:00:10;101467.59;;;13.37;47.54
42725;BME280;28369;44.046;23.014;2023-04-08T04:02:36;101520.69;;;13.66;47.27
42725;BME280;28369;44.046;23.014;2023-04-08T04:05:01;101491.72;;;13.32;47.55
42725;BME280;28369;44.046;23.014;2023-04-08T04:07:27;101421.47;;;13.08;47.46
42725;BME280;28369;44.046;23.014;2023-04-08T04:09:52;101294.84;;;12.43;47.12
42725;BME280;28369;44.046;23.014;2023-04-08T04:12:20;101573.56;;;14.08;47.27
42725;BME280;28369;44.046;23.014;2023-04-08T04:14:46;101531.84;;;13.91;47.01
42725;BME280;28369;44.046;23.014;2023-04-08T04:17:11;101563.75;;;13.99;47.10
42725;BME280;28369;44.046;23.014;2023-04-08T04:19:37;101531.78;;;14.02;46.62
42725;BME280;28369;44.046;23.014;2023-04-08T04:22:02;101550.16;;;14.04;46.72
42725;BME280;28369;44.046;23.014;2023-04-08T04:24:27;101491.91;;;13.73;46.52
42725;BME280;28369;44.046;23.014;2023-04-08T04:26:53;101329.78;;;12.89;46.35
42725;BME280;28369;44.046;23.014;2023-04-08T04:29:18;101502.22;;;13.97;46.51
42725;BME280;28369;44.046;23.014;2023-04-08T04:31:44;101437.28;;;13.20;46.77
42725;BME280;28369;44.046;23.014;2023-04-08T04:34:10;101506.22;;;13.70;47.19
42725;BME280;28369;44.046;23.014;2023-04-08T04:36:35;101444.81;;;13.24;47.36
42725;BME280;28369;44.046;23.014;2023-04-08T04:39:01;101581.63;;;14.07;47.31
42725;BME280;28369;44.046;23.014;2023-04-08T04:41:26;101525.38;;;13.62;47.26
42725;BME280;28369;44.046;23.014;2023-04-08T04:43:52;101501.78;;;13.50;47.36
42725;BME280;28369;44.046;23.014;2023-04-08T04:46:18;101556.41;;;14.03;47.33
42725;BME280;28369;44.046;23.014;2023-04-08T04:48:43;101360.06;;;12.74;47.42
42725;BME280;28369;44.046;23.014;2023-04-08T04:51:09;101569.78;;;13.69;47.77
42725;BME280;28369;44.046;23.014;2023-04-08T04:53:34;101554.47;;;13.51;48.06
42725;BME280;28369;44.046;23.014;2023-04-08T04:56:00;101516.44;;;13.42;47.77
42725;BME280;28369;44.046;23.014;2023-04-08T04:58:26;101270.72;;;12.04;47.65
42725;BME280;28369;44.046;23.014;2023-04-08T05:00:51;101463.63;;;13.63;46.71
42725;BME280;28369;44.046;23.014;2023-04-08T05:03:17;101606.50;;;14.25;47.15
42725;BME280;28369;44.046;23.014;2023-04-08T05:05:42;101545.13;;;14.00;47.11
42725;BME280;28369;44.046;23.014;2023-04-08T05:08:07;101527.06;;;14.06;46.88
42725;BME280;28369;44.046;23.014;2023-04-08T05:10:33;101513.69;;;14.07;46.75
42725;BME280;28369;44.046;23.014;2023-04-08T05:12:58;101495.06;;;14.09;46.49
42725;BME280;28369;44.046;23.014;2023-04-08T05:15:24;101507.31;;;14.10;46.48
42725;BME280;28369;44.046;23.014;2023-04-08T05:17:50;101295.16;;;13.04;46.33
42725;BME280;28369;44.046;23.014;2023-04-08T05:20:15;101331.41;;;13.23;46.45
42725;BME280;28369;44.046;23.014;2023-04-08T05:22:41;101551.63;;;14.69;46.24
42725;BME280;28369;44.046;23.014;2023-04-08T05:25:09;101583.63;;;14.97;46.68
42725;BME280;28369;44.046;23.014;2023-04-08T05:27:34;101490.91;;;14.47;46.63
42725;BME280;28369;44.046;23.014;2023-04-08T05:30:00;101508.25;;;14.61;46.52
42725;BME280;28369;44.046;23.014;2023-04-08T05:32:26;101518.53;;;14.54;46.93
42725;BME280;28369;44.046;23.014;2023-04-08T05:34:51;101427.69;;;14.03;47.07
42725;BME280;28369;44.046;23.014;2023-04-08T05:37:16;101531.22;;;14.91;46.31
42725;BME280;28369;44.046;23.014;2023-04-08T05:39:42;101529.97;;;14.95;46.03
42725;BME280;28369;44.046;23.014;2023-04-08T05:42:07;101365.41;;;14.20;45.50
42725;BME280;28369;44.046;23.014;2023-04-08T05:44:33;101516.28;;;14.90;45.49
42725;BME280;28369;44.046;23.014;2023-04-08T05:46:58;101502.66;;;15.04;45.26
42725;BME280;28369;44.046;23.014;2023-04-08T05:49:24;101561.00;;;15.44;45.16
42725;BME280;28369;44.046;23.014;2023-04-08T05:51:50;101518.53;;;14.85;45.44
42725;BME280;28369;44.046;23.014;2023-04-08T05:54:15;101310.84;;;14.09;45.12
42725;BME280;28369;44.046;23.014;2023-04-08T05:56:41;101571.03;;;15.60;45.03
42725;BME280;28369;44.046;23.014;2023-04-08T05:59:06;101592.81;;;15.63;44.97
42725;BME280;28369;44.046;23.014;2023-04-08T06:01:32;101460.03;;;14.98;44.84
42725;BME280;28369;44.046;23.014;2023-04-08T06:03:57;101530.03;;;15.54;44.59
42725;BME280;28369;44.046;23.014;2023-04-08T06:06:23;101586.53;;;15.74;44.99
42725;BME280;28369;44.046;23.014;2023-04-08T06:08:50;101531.44;;;15.58;44.72
42725;BME280;28369;44.046;23.014;2023-04-08T06:11:15;101559.63;;;15.59;44.93
42725;BME280;28369;44.046;23.014;2023-04-08T06:13:41;101570.75;;;15.72;45.02
42725;BME280;28369;44.046;23.014;2023-04-08T06:16:14;101384.53;;;14.53;45.05
42725;BME280;28369;44.046;23.014;2023-04-08T06:18:40;101342.78;;;14.47;44.62
42725;BME280;28369;44.046;23.014;2023-04-08T06:21:05;101361.28;;;14.47;45.01
42725;BME280;28369;44.046;23.014;2023-04-08T06:23:31;101548.69;;;15.23;45.36
42725;BME280;28369;44.046;23.014;2023-04-08T06:25:56;101570.75;;;16.12;44.17
42725;BME280;28369;44.046;23.014;2023-04-08T06:28:23;101594.31;;;16.34;43.84
42725;BME280;28369;44.046;23.014;2023-04-08T06:30:48;101315.22;;;14.59;44.17
42725;BME280;28369;44.046;23.014;2023-04-08T06:33:14;101521.97;;;15.85;44.25
42725;BME280;28369;44.046;23.014;2023-04-08T06:35:39;101582.66;;;16.55;43.01
42725;BME280;28369;44.046;23.014;2023-04-08T06:38:05;101589.56;;;16.75;42.54
42725;BME280;28369;44.046;23.014;2023-04-08T06:40:31;101356.84;;;15.35;42.00
42725;BME280;28369;44.046;23.014;2023-04-08T06:42:56;101571.59;;;16.87;41.87
42725;BME280;28369;44.046;23.014;2023-04-08T06:45:21;101570.75;;;16.97;41.55
42725;BME280;28369;44.046;23.014;2023-04-08T06:47:47;101373.50;;;15.85;41.67
42725;BME280;28369;44.046;23.014;2023-04-08T06:50:12;101502.88;;;16.19;42.04
42725;BME280;28369;44.046;23.014;2023-04-08T06:52:38;101614.66;;;17.19;40.88
42725;BME280;28369;44.046;23.014;2023-04-08T06:55:04;101614.97;;;17.43;41.10
42725;BME280;28369;44.046;23.014;2023-04-08T06:57:29;101570.00;;;16.76;41.62
42725;BME280;28369;44.046;23.014;2023-04-08T06:59:55;101553.88;;;17.16;39.67
42725;BME280;28369;44.046;23.014;2023-04-08T07:02:21;101593.25;;;17.66;39.71
42725;BME280;28369;44.046;23.014;2023-04-08T07:04:48;101595.81;;;18.12;39.18
42725;BME280;28369;44.046;23.014;2023-04-08T07:07:13;101575.00;;;17.89;39.14
42725;BME280;28369;44.046;23.014;2023-04-08T07:09:39;101466.69;;;17.55;39.14
42725;BME280;28369;44.046;23.014;2023-04-08T07:12:07;101568.53;;;17.74;39.29
42725;BME280;28369;44.046;23.014;2023-04-08T07:14:33;101595.28;;;17.72;38.69
42725;BME280;28369;44.046;23.014;2023-04-08T07:16:58;101323.75;;;16.42;38.58
42725;BME280;28369;44.046;23.014;2023-04-08T07:19:24;101540.81;;;17.76;38.33
42725;BME280;28369;44.046;23.014;2023-04-08T07:21:50;101590.50;;;17.94;38.66
42725;BME280;28369;44.046;23.014;2023-04-08T07:24:16;101596.63;;;18.12;37.44
42725;BME280;28369;44.046;23.014;2023-04-08T07:26:42;101607.50;;;18.19;38.20
42725;BME280;28369;44.046;23.014;2023-04-08T07:29:08;101545.03;;;18.05;37.71
42725;BME280;28369;44.046;23.014;2023-04-08T07:31:33;101607.78;;;18.69;38.07
42725;BME280;28369;44.046;23.014;2023-04-08T07:33:59;101381.06;;;17.43;37.19
42725;BME280;28369;44.046;23.014;2023-04-08T07:36:25;101604.84;;;18.80;37.04
42725;BME280;28369;44.046;23.014;2023-04-08T07:38:50;101606.78;;;18.96;37.15
42725;BME280;28369;44.046;23.014;2023-04-08T07:41:16;101614.63;;;18.19;38.54
42725;BME280;28369;44.046;23.014;2023-04-08T07:43:41;101586.97;;;18.11;37.05
42725;BME280;28369;44.046;23.014;2023-04-08T07:46:07;101594.78;;;18.31;37.86
42725;BME280;28369;44.046;23.014;2023-04-08T07:48:33;101603.13;;;18.36;36.40
42725;BME280;28369;44.046;23.014;2023-04-08T07:51:07;101617.75;;;18.32;35.03
42725;BME280;28369;44.046;23.014;2023-04-08T07:53:33;101587.16;;;18.36;36.41
42725;BME280;28369;44.046;23.014;2023-04-08T07:55:59;101556.09;;;18.19;35.76
42725;BME280;28369;44.046;23.014;2023-04-08T07:58:25;101612.44;;;18.40;36.25
42725;BME280;28369;44.046;23.014;2023-04-08T08:00:51;101545.44;;;17.92;37.26
42725;BME280;28369;44.046;23.014;2023-04-08T08:03:16;101573.59;;;18.03;36.76
42725;BME280;28369;44.046;23.014;2023-04-08T08:05:42;101616.13;;;18.39;35.55
42725;BME280;28369;44.046;23.014;2023-04-08T08:08:07;101605.75;;;18.89;35.85
42725;BME280;28369;44.046;23.014;2023-04-08T08:10:39;101582.56;;;18.46;36.96
42725;BME280;28369;44.046;23.014;2023-04-08T08:13:07;101600.06;;;18.83;35.60
42725;BME280;28369;44.046;23.014;2023-04-08T08:15:33;101436.72;;;17.98;35.45
42725;BME280;28369;44.046;23.014;2023-04-08T08:17:58;101626.25;;;18.88;36.19
42725;BME280;28369;44.046;23.014;2023-04-08T08:20:24;101478.25;;;18.17;34.92
42725;BME280;28369;44.046;23.014;2023-04-08T08:22:50;101628.06;;;18.88;35.06
42725;BME280;28369;44.046;23.014;2023-04-08T08:25:16;101583.81;;;18.69;34.82
42725;BME280;28369;44.046;23.014;2023-04-08T08:27:42;101593.13;;;18.64;35.71
42725;BME280;28369;44.046;23.014;2023-04-08T08:30:08;101553.50;;;18.27;36.99
42725;BME280;28369;44.046;23.014;2023-04-08T08:32:34;101456.53;;;17.77;34.90
42725;BME280;28369;44.046;23.014;2023-04-08T08:35:00;101593.97;;;18.99;35.03
42725;BME280;28369;44.046;23.014;2023-04-08T08:37:25;101645.66;;;19.15;34.91
42725;BME280;28369;44.046;23.014;2023-04-08T08:39:51;101640.59;;;18.95;35.72
42725;BME280;28369;44.046;23.014;2023-04-08T08:42:20;101658.22;;;18.70;35.63
42725;BME280;28369;44.046;23.014;2023-04-08T08:44:46;101619.44;;;18.94;35.62
42725;BME280;28369;44.046;23.014;2023-04-08T08:47:12;101642.31;;;19.13;35.73
42725;BME280;28369;44.046;23.014;2023-04-08T08:49:37;101506.53;;;18.52;35.71
42725;BME280;28369;44.046;23.014;2023-04-08T08:52:03;101637.88;;;19.30;35.59
42725;BME280;28369;44.046;23.014;2023-04-08T08:54:29;101465.13;;;18.58;35.06
42725;BME280;28369;44.046;23.014;2023-04-08T08:56:55;101631.91;;;19.44;35.21
42725;BME280;28369;44.046;23.014;2023-04-08T08:59:21;101616.34;;;19.23;35.06
42725;BME280;28369;44.046;23.014;2023-04-08T09:01:46;101465.22;;;18.40;35.67
42725;BME280;28369;44.046;23.014;2023-04-08T09:04:17;101621.28;;;19.77;35.63
42725;BME280;28369;44.046;23.014;2023-04-08T09:06:48;101565.66;;;19.91;33.83
42725;BME280;28369;44.046;23.014;2023-04-08T09:09:16;101603.09;;;20.38;34.54
42725;BME280;28369;44.046;23.014;2023-04-08T09:11:46;101562.63;;;19.61;34.23
42725;BME280;28369;44.046;23.014;2023-04-08T09:14:21;101447.59;;;19.23;35.32
42725;BME280;28369;44.046;23.014;2023-04-08T09:16:46;101453.28;;;19.44;34.53
42725;BME280;28369;44.046;23.014;2023-04-08T09:19:12;101580.28;;;20.03;33.81
42725;BME280;28369;44.046;23.014;2023-04-08T09:21:39;101653.84;;;21.03;33.40
42725;BME280;28369;44.046;23.014;2023-04-08T09:24:06;101630.66;;;20.23;34.79
42725;BME280;28369;44.046;23.014;2023-04-08T09:26:31;101572.19;;;20.52;33.38
42725;BME280;28369;44.046;23.014;2023-04-08T09:29:01;101464.94;;;19.60;33.80
42725;BME280;28369;44.046;23.014;2023-04-08T09:31:29;101630.25;;;20.75;34.87
42725;BME280;28369;44.046;23.014;2023-04-08T09:33:59;101611.31;;;20.20;34.07
42725;BME280;28369;44.046;23.014;2023-04-08T09:36:26;101484.94;;;19.72;33.47
42725;BME280;28369;44.046;23.014;2023-04-08T09:38:55;101592.00;;;19.94;35.04
42725;BME280;28369;44.046;23.014;2023-04-08T09:41:22;101387.25;;;18.72;35.06
42725;BME280;28369;44.046;23.014;2023-04-08T09:43:55;101627.41;;;20.77;34.35
42725;BME280;28369;44.046;23.014;2023-04-08T09:46:42;101647.63;;;20.71;34.58
42725;BME280;28369;44.046;23.014;2023-04-08T09:52:29;101651.03;;;20.96;34.38
42725;BME280;28369;44.046;23.014;2023-04-08T09:55:04;101623.06;;;21.15;33.40
42725;BME280;28369;44.046;23.014;2023-04-08T09:57:43;101302.53;;;19.09;33.70
42725;BME280;28369;44.046;23.014;2023-04-08T10:00:12;101651.63;;;21.15;34.41
42725;BME280;28369;44.046;23.014;2023-04-08T10:05:17;101617.41;;;21.10;33.40
42725;BME280;28369;44.046;23.014;2023-04-08T10:07:42;101627.44;;;21.08;34.10
42725;BME280;28369;44.046;23.014;2023-04-08T10:10:08;101380.09;;;19.63;33.68
42725;BME280;28369;44.046;23.014;2023-04-08T10:12:36;101587.84;;;20.64;34.14
42725;BME280;28369;44.046;23.014;2023-04-08T10:15:31;101620.56;;;20.74;34.83
42725;BME280;28369;44.046;23.014;2023-04-08T10:23:08;101646.56;;;20.88;34.90
42725;BME280;28369;44.046;23.014;2023-04-08T10:25:37;101622.75;;;21.10;33.14
42725;BME280;28369;44.046;23.014;2023-04-08T10:30:42;101627.25;;;20.62;33.66
42725;BME280;28369;44.046;23.014;2023-04-08T10:35:51;101635.19;;;20.95;34.77
42725;BME280;28369;44.046;23.014;2023-04-08T10:38:18;101604.88;;;20.63;33.83
42725;BME280;28369;44.046;23.014;2023-04-08T10:40:43;101406.03;;;19.86;33.36
42725;BME280;28369;44.046;23.014;2023-04-08T10:43:11;101621.38;;;21.22;32.79
42725;BME280;28369;44.046;23.014;2023-04-08T10:45:38;101585.81;;;20.66;34.51
42725;BME280;28369;44.046;23.014;2023-04-08T10:50:38;101512.13;;;20.88;33.73
42725;BME280;28369;44.046;23.014;2023-04-08T10:53:05;101586.72;;;21.61;33.18
42725;BME280;28369;44.046;23.014;2023-04-08T10:55:32;101575.16;;;21.37;32.44
42725;BME280;28369;44.046;23.014;2023-04-08T10:58:08;101610.19;;;22.12;32.15
42725;BME280;28369;44.046;23.014;2023-04-08T11:00:36;101310.75;;;20.03;31.67
42725;BME280;28369;44.046;23.014;2023-04-08T11:03:07;101547.97;;;21.56;33.31
42725;BME280;28369;44.046;23.014;2023-04-08T11:05:33;101566.69;;;21.56;31.22
42725;BME280;28369;44.046;23.014;2023-04-08T11:07:59;101619.59;;;21.38;31.55
42725;BME280;28369;44.046;23.014;2023-04-08T11:10:26;101598.13;;;21.54;31.12
42725;BME280;28369;44.046;23.014;2023-04-08T11:12:55;101617.53;;;21.95;31.20
42725;BME280;28369;44.046;23.014;2023-04-08T11:15:23;101500.91;;;21.39;32.01
42725;BME280;28369;44.046;23.014;2023-04-08T11:17:49;101415.94;;;20.57;31.31
42725;BME280;28369;44.046;23.014;2023-04-08T11:20:16;101595.09;;;21.57;31.42
42725;BME280;28369;44.046;23.014;2023-04-08T11:22:42;101594.78;;;21.75;32.04
42725;BME280;28369;44.046;23.014;2023-04-08T11:25:09;101616.78;;;21.31;31.40
42725;BME280;28369;44.046;23.014;2023-04-08T11:27:36;101573.63;;;21.66;30.76
42725;BME280;28369;44.046;23.014;2023-04-08T11:30:05;101612.91;;;22.26;31.46
42725;BME280;28369;44.046;23.014;2023-04-08T11:32:31;101466.56;;;21.51;31.52
42725;BME280;28369;44.046;23.014;2023-04-08T11:34:59;101605.63;;;21.82;31.88
42725;BME280;28369;44.046;23.014;2023-04-08T11:37:40;101603.72;;;21.68;30.94
42725;BME280;28369;44.046;23.014;2023-04-08T11:40:10;101587.88;;;21.81;32.56
42725;BME280;28369;44.046;23.014;2023-04-08T11:42:37;101576.47;;;21.64;31.91
42725;BME280;28369;44.046;23.014;2023-04-08T11:45:12;101547.81;;;21.27;31.37
42725;BME280;28369;44.046;23.014;2023-04-08T11:47:38;101445.56;;;21.01;30.94
42725;BME280;28369;44.046;23.014;2023-04-08T11:50:04;101551.91;;;21.99;30.73
42725;BME280;28369;44.046;23.014;2023-04-08T11:52:46;101585.66;;;22.08;30.54
42725;BME280;28369;44.046;23.014;2023-04-08T11:55:25;101589.44;;;22.29;31.02
42725;BME280;28369;44.046;23.014;2023-04-08T11:57:51;101555.97;;;22.33;31.01
42725;BME280;28369;44.046;23.014;2023-04-08T12:00:19;101550.56;;;22.18;29.78
42725;BME280;28369;44.046;23.014;2023-04-08T12:02:45;101529.22;;;22.09;31.07
42725;BME280;28369;44.046;23.014;2023-04-08T12:05:12;101382.97;;;21.34;30.91
42725;BME280;28369;44.046;23.014;2023-04-08T12:07:38;101538.75;;;22.12;29.45
42725;BME280;28369;44.046;23.014;2023-04-08T12:10:04;101585.28;;;22.11;30.64
42725;BME280;28369;44.046;23.014;2023-04-08T12:12:29;101562.44;;;22.00;30.62
42725;BME280;28369;44.046;23.014;2023-04-08T12:14:55;101577.81;;;22.21;31.24
42725;BME280;28369;44.046;23.014;2023-04-08T12:17:21;101372.84;;;21.06;31.50
42725;BME280;28369;44.046;23.014;2023-04-08T12:19:46;101545.44;;;21.93;31.80
42725;BME280;28369;44.046;23.014;2023-04-08T12:22:12;101561.25;;;21.88;32.11
42725;BME280;28369;44.046;23.014;2023-04-08T12:24:37;101537.16;;;21.88;31.65
42725;BME280;28369;44.046;23.014;2023-04-08T12:27:03;101498.59;;;21.36;32.19
42725;BME280;28369;44.046;23.014;2023-04-08T12:29:29;101325.81;;;20.50;31.87
42725;BME280;28369;44.046;23.014;2023-04-08T12:31:55;101514.44;;;21.84;31.22
42725;BME280;28369;44.046;23.014;2023-04-08T12:34:20;101507.28;;;21.61;31.76
42725;BME280;28369;44.046;23.014;2023-04-08T12:36:46;101502.72;;;22.00;31.68
42725;BME280;28369;44.046;23.014;2023-04-08T12:39:13;101518.50;;;22.24;31.24
42725;BME280;28369;44.046;23.014;2023-04-08T12:41:38;101494.31;;;22.03;31.26
42725;BME280;28369;44.046;23.014;2023-04-08T12:44:04;101526.53;;;22.84;30.28
42725;BME280;28369;44.046;23.014;2023-04-08T12:46:29;101488.38;;;23.04;30.50
42725;BME280;28369;44.046;23.014;2023-04-08T12:48:55;101551.56;;;22.91;30.25
42725;BME280;28369;44.046;23.014;2023-04-08T12:51:20;101437.72;;;22.21;31.14
42725;BME280;28369;44.046;23.014;2023-04-08T12:53:46;101461.28;;;21.96;30.76
42725;BME280;28369;44.046;23.014;2023-04-08T12:56:11;101510.97;;;22.58;31.03
42725;BME280;28369;44.046;23.014;2023-04-08T12:58:37;101506.84;;;22.77;30.64
42725;BME280;28369;44.046;23.014;2023-04-08T13:01:02;101340.13;;;21.57;31.44